Time;durP1;ratioP1;P1;durP2;ratioP2;P2;SDS_P1;SDS_P2;PMS_P1;PMS_P2;Temp;Humidity;BMP_temperature;BMP_pressure;BME280_temperature;BME280_humidity;BME280_pressure;Samples;Min_cycle;Max_cycle;Signal;HPM_P1;HPM_P2
2022/03/22 00:00:05;;;;;;;;;;;;;;;18.69;42.18;103101.84;5127736;28;19911;-55
2022/03/22 00:02:30;;;;;;;;;;;;;;;18.69;41.99;103103.59;5127462;28;19908;-57
2022/03/22 00:04:55;;;;;;;;;;;;;;;18.68;41.74;103105.44;5125676;28;19946;-51
2022/03/22 00:07:21;;;;;;;;;;;;;;;18.67;41.75;103101.03;5127722;28;19920;-51
2022/03/22 00:09:46;;;;;;;;;;;;;;;18.66;41.86;103093.06;5126472;28;19975;-51
2022/03/22 00:12:11;;;;;;;;;;;;;;;18.65;41.82;103100.31;5127436;28;20295;-55
2022/03/22 00:14:36;;;;;;;;;;;;;;;18.65;41.76;103104.84;5127343;28;19975;-53
2022/03/22 00:17:03;;;;;;;;;;;;;;;18.65;41.99;103099.44;5127004;28;19912;-52
2022/03/22 00:19:28;;;;;;;;;;;;;;;18.64;41.93;103101.25;5126857;28;19912;-49
2022/03/22 00:21:54;;;;;;;;;;;;;;;18.63;41.70;103101.38;5127056;28;19911;-53
2022/03/22 00:24:19;;;;;;;;;;;;;;;18.62;41.99;103108.59;5126571;27;19923;-51
2022/03/22 00:26:44;;;;;;;;;;;;;;;18.62;41.80;103094.28;5126278;28;19907;-55
2022/03/22 00:29:09;;;;;;;;;;;;;;;18.60;41.79;103091.69;5127130;28;19914;-54
2022/03/22 00:31:34;;;;;;;;;;;;;;;18.60;41.71;103099.75;5126641;28;19908;-54
2022/03/22 00:33:59;;;;;;;;;;;;;;;18.61;41.78;103095.25;5126522;28;19907;-56
2022/03/22 00:36:25;;;;;;;;;;;;;;;18.59;41.78;103091.81;5109455;28;19908;-50
2022/03/22 00:38:50;;;;;;;;;;;;;;;18.58;41.91;103096.34;5106397;28;19918;-54
2022/03/22 00:41:17;;;;;;;;;;;;;;;18.57;41.73;103102.72;5105756;28;19908;-52
2022/03/22 00:43:43;;;;;;;;;;;;;;;18.57;41.75;103102.72;5106345;28;19922;-53
2022/03/22 00:46:08;;;;;;;;;;;;;;;18.56;41.81;103108.19;5126363;28;20384;-55
2022/03/22 00:48:33;;;;;;;;;;;;;;;18.54;41.85;103100.22;5125985;28;19911;-55
2022/03/22 00:50:58;;;;;;;;;;;;;;;18.54;41.66;103102.06;5126701;28;19960;-53
2022/03/22 00:53:24;;;;;;;;;;;;;;;18.54;41.60;103097.53;5126164;28;19908;-51
2022/03/22 00:55:49;;;;;;;;;;;;;;;18.53;41.81;103095.81;5125835;28;20324;-50
2022/03/22 00:58:14;;;;;;;;;;;;;;;18.53;41.66;103100.34;5125191;28;19908;-49
2022/03/22 01:00:39;;;;;;;;;;;;;;;18.52;41.61;103101.31;5120354;28;19908;-52
2022/03/22 01:03:05;;;;;;;;;;;;;;;18.51;41.64;103092.38;5105228;28;19912;-52
2022/03/22 01:05:31;;;;;;;;;;;;;;;18.50;41.75;103104.13;5108285;28;19912;-51
2022/03/22 01:07:57;;;;;;;;;;;;;;;18.49;41.55;103103.25;5110518;28;19919;-51
2022/03/22 01:10:24;;;;;;;;;;;;;;;18.49;41.52;103102.41;5105136;28;20452;-51
2022/03/22 01:12:49;;;;;;;;;;;;;;;18.47;41.63;103102.50;5105600;28;19908;-53
2022/03/22 01:15:15;;;;;;;;;;;;;;;18.47;41.70;103107.03;5104404;28;19908;-54
2022/03/22 01:17:40;;;;;;;;;;;;;;;18.46;41.44;103102.63;5105383;28;19908;-52
2022/03/22 01:20:09;;;;;;;;;;;;;;;18.45;41.62;103101.75;5105174;28;19969;-52
2022/03/22 01:22:34;;;;;;;;;;;;;;;18.44;41.72;103093.81;5117260;28;19916;-53
2022/03/22 01:25:00;;;;;;;;;;;;;;;18.44;41.73;103096.50;5125389;28;19918;-52
2022/03/22 01:27:26;;;;;;;;;;;;;;;18.43;41.77;103090.22;5125913;27;19919;-52
2022/03/22 01:29:51;;;;;;;;;;;;;;;18.42;41.71;103090.34;5125764;28;19930;-53
2022/03/22 01:32:16;;;;;;;;;;;;;;;18.41;41.69;103097.56;5125513;28;19918;-49
2022/03/22 01:34:44;;;;;;;;;;;;;;;18.41;41.45;103096.72;5122493;28;19916;-49
2022/03/22 01:37:10;;;;;;;;;;;;;;;18.40;41.54;103092.31;5105340;28;19908;-52
2022/03/22 01:39:35;;;;;;;;;;;;;;;18.38;41.61;103083.47;5086617;28;19908;-49
2022/03/22 01:42:00;;;;;;;;;;;;;;;18.38;41.49;103091.53;5104742;28;20417;-51
2022/03/22 01:44:26;;;;;;;;;;;;;;;18.37;41.68;103081.75;5109509;28;19908;-51
2022/03/22 01:46:52;;;;;;;;;;;;;;;18.36;41.41;103086.28;5123933;28;19951;-50
2022/03/22 01:49:18;;;;;;;;;;;;;;;18.35;41.62;103089.97;5123680;28;19907;-52
2022/03/22 01:51:43;;;;;;;;;;;;;;;18.35;41.45;103091.75;5125004;28;20449;-54
2022/03/22 01:54:08;;;;;;;;;;;;;;;18.33;41.54;103088.34;5125120;28;19979;-50
2022/03/22 01:56:33;;;;;;;;;;;;;;;18.34;41.47;103081.97;5123369;28;19914;-53
2022/03/22 01:58:58;;;;;;;;;;;;;;;18.32;41.47;103086.63;5125218;28;19914;-53
2022/03/22 02:06:53;;;;;;;;;;;;;;;18.29;41.50;103074.22;5125073;28;19991;-54
2022/03/22 02:09:18;;;;;;;;;;;;;;;18.29;41.56;103074.22;5125027;28;19907;-55
2022/03/22 02:11:43;;;;;;;;;;;;;;;18.28;41.42;103067.13;5123879;28;19908;-52
2022/03/22 02:14:09;;;;;;;;;;;;;;;18.28;41.30;103068.97;5124738;28;20372;-53
2022/03/22 02:16:34;;;;;;;;;;;;;;;18.27;41.53;103070.81;5124797;28;19914;-52
2022/03/22 02:18:59;;;;;;;;;;;;;;;18.27;41.49;103072.63;5124745;28;19914;-53
2022/03/22 02:21:25;;;;;;;;;;;;;;;18.25;41.45;103072.72;5123391;28;20276;-54
2022/03/22 02:23:51;;;;;;;;;;;;;;;18.24;41.31;103069.19;5123295;28;19998;-52
2022/03/22 02:26:17;;;;;;;;;;;;;;;18.23;41.45;103066.63;5124285;28;19915;-51
2022/03/22 02:28:43;;;;;;;;;;;;;;;18.23;41.30;103069.31;5123573;28;19924;-49
2022/03/22 02:31:08;;;;;;;;;;;;;;;18.22;41.44;103070.25;5124722;28;19968;-52
2022/03/22 02:33:33;;;;;;;;;;;;;;;18.21;41.23;103066.69;5124228;28;19908;-52
2022/03/22 02:35:59;;;;;;;;;;;;;;;18.21;41.20;103066.69;5124463;28;19940;-51
2022/03/22 02:38:24;;;;;;;;;;;;;;;18.19;41.39;103067.81;5124798;28;19907;-55
2022/03/22 02:40:49;;;;;;;;;;;;;;;18.19;41.37;103067.81;5123855;28;19947;-55
2022/03/22 02:43:15;;;;;;;;;;;;;;;18.19;41.37;103067.81;5124638;28;19933;-53
2022/03/22 02:45:40;;;;;;;;;;;;;;;18.17;41.27;103061.66;5117938;28;19908;-54
2022/03/22 02:48:05;;;;;;;;;;;;;;;18.17;41.26;103064.34;5103757;28;19918;-50
2022/03/22 02:50:30;;;;;;;;;;;;;;;18.16;41.25;103066.19;5103991;28;19908;-53
2022/03/22 02:52:55;;;;;;;;;;;;;;;18.15;41.30;103067.16;5104066;28;19915;-54
2022/03/22 02:55:21;;;;;;;;;;;;;;;18.15;41.31;103071.69;5103707;28;19908;-54
2022/03/22 02:57:46;;;;;;;;;;;;;;;18.14;41.30;103072.66;5104146;28;20288;-55
2022/03/22 03:00:12;;;;;;;;;;;;;;;18.13;41.21;103066.41;5104080;28;19912;-52
2022/03/22 03:02:51;;;;;;;;;;;;;;;18.12;41.32;103070.06;5103978;28;19940;-49
2022/03/22 03:05:17;;;;;;;;;;;;;;;18.12;41.32;103067.38;5103673;28;19915;-49
2022/03/22 03:07:42;;;;;;;;;;;;;;;18.12;41.10;103071.91;5104052;28;19991;-51
2022/03/22 03:10:08;;;;;;;;;;;;;;;18.11;41.28;103075.56;5103241;28;19955;-53
2022/03/22 03:12:33;;;;;;;;;;;;;;;18.10;41.20;103076.56;5122680;28;19951;-50
2022/03/22 03:14:58;;;;;;;;;;;;;;;18.10;41.29;103076.56;5124364;28;20006;-50
2022/03/22 03:17:23;;;;;;;;;;;;;;;18.08;41.20;103073.09;5124158;28;19907;-55
2022/03/22 03:19:49;;;;;;;;;;;;;;;18.07;41.01;103074.06;5122340;28;19943;-54
2022/03/22 03:22:14;;;;;;;;;;;;;;;18.06;41.25;103078.59;5124302;28;19908;-52
2022/03/22 03:24:39;;;;;;;;;;;;;;;18.06;41.19;103086.69;5126623;28;19915;-51
2022/03/22 03:27:04;;;;;;;;;;;;;;;18.05;40.95;103084.06;5127373;28;19919;-53
2022/03/22 03:29:29;;;;;;;;;;;;;;;18.04;41.17;103085.91;5128181;28;19914;-52
2022/03/22 03:31:55;;;;;;;;;;;;;;;18.03;41.16;103084.19;5127940;28;19943;-53
2022/03/22 03:34:20;;;;;;;;;;;;;;;18.03;41.17;103086.03;5127535;28;19912;-52
2022/03/22 03:36:45;;;;;;;;;;;;;;;18.02;41.05;103089.69;5107600;28;19908;-53
2022/03/22 03:39:11;;;;;;;;;;;;;;;18.01;41.10;103091.53;5107407;28;19907;-53
2022/03/22 03:41:55;;;;;;;;;;;;;;;17.99;41.06;103086.25;5120654;28;19911;-54
2022/03/22 03:47:08;;;;;;;;;;;;;;;17.98;40.87;103089.06;5127708;28;19979;-53
2022/03/22 03:49:34;;;;;;;;;;;;;;;17.97;40.87;103087.34;5127514;28;19908;-54
2022/03/22 03:51:59;;;;;;;;;;;;;;;17.97;40.99;103090.03;5127812;28;19947;-50
2022/03/22 03:54:25;;;;;;;;;;;;;;;17.95;41.11;103098.19;5127799;28;19908;-50
2022/03/22 03:56:50;;;;;;;;;;;;;;;17.94;41.08;103099.16;5126939;28;19908;-48
2022/03/22 03:59:15;;;;;;;;;;;;;;;17.94;40.83;103101.88;5127940;28;19955;-48
2022/03/22 04:01:40;;;;;;;;;;;;;;;17.93;41.02;103096.59;5127392;28;19907;-53
2022/03/22 04:04:05;;;;;;;;;;;;;;;17.93;41.06;103099.28;5126989;28;19967;-51
2022/03/22 04:06:31;;;;;;;;;;;;;;;17.92;41.02;103101.09;5127442;28;19915;-51
2022/03/22 04:08:56;;;;;;;;;;;;;;;17.91;41.00;103099.38;5127196;27;19977;-50
2022/03/22 04:11:21;;;;;;;;;;;;;;;17.90;40.95;103100.34;5126611;28;19922;-52
2022/03/22 04:13:47;;;;;;;;;;;;;;;17.89;41.02;103101.34;5127321;28;19939;-49
2022/03/22 04:16:12;;;;;;;;;;;;;;;17.89;40.97;103092.41;5127159;28;19964;-52
2022/03/22 04:18:37;;;;;;;;;;;;;;;17.88;40.73;103098.72;5126894;28;20010;-53
2022/03/22 04:21:02;;;;;;;;;;;;;;;17.87;40.99;103103.25;5127296;28;19923;-53
2022/03/22 04:23:28;;;;;;;;;;;;;;;17.87;40.98;103108.63;5127007;28;20004;-49
2022/03/22 04:25:53;;;;;;;;;;;;;;;17.87;40.82;103100.56;5126355;28;19929;-51
2022/03/22 04:33:53;;;;;;;;;;;;;;;17.85;41.14;103107.03;5126373;28;19914;-51
2022/03/22 04:36:19;;;;;;;;;;;;;;;17.83;40.97;103104.44;5125766;28;19911;-51
2022/03/22 04:38:44;;;;;;;;;;;;;;;17.82;40.71;103099.19;5126550;27;19908;-52
2022/03/22 04:41:09;;;;;;;;;;;;;;;17.81;40.95;103109.09;5126220;28;19912;-52
2022/03/22 04:43:34;;;;;;;;;;;;;;;17.80;40.94;103115.44;5126706;28;19908;-48
2022/03/22 04:46:01;;;;;;;;;;;;;;;17.81;40.96;103117.16;5117162;28;19908;-52
2022/03/22 04:48:26;;;;;;;;;;;;;;;17.79;41.00;103112.84;5105858;28;20406;-49
2022/03/22 04:56:43;;;;;;;;;;;;;;;17.78;40.93;103113.81;5106247;28;19912;-53
2022/03/22 04:59:04;;;;;;;;;;;;;;;17.75;40.78;103109.50;5106350;28;19915;-52
2022/03/22 05:01:30;;;;;;;;;;;;;;;17.75;40.86;103122.94;5105950;28;19908;-51
2022/03/22 05:03:55;;;;;;;;;;;;;;;17.73;40.93;103119.50;5105592;28;19915;-53
2022/03/22 05:06:26;;;;;;;;;;;;;;;17.72;40.79;103113.25;5105962;28;19908;-52
2022/03/22 05:08:54;;;;;;;;;;;;;;;17.71;40.80;103116.91;5105562;28;20010;-53
2022/03/22 05:11:20;;;;;;;;;;;;;;;17.71;40.97;103125.00;5118484;28;19919;-55
2022/03/22 05:13:45;;;;;;;;;;;;;;;17.70;40.86;103122.38;5126069;28;19914;-54
2022/03/22 05:16:10;;;;;;;;;;;;;;;17.69;40.91;103123.34;5125970;28;19929;-55
2022/03/22 05:18:36;;;;;;;;;;;;;;;17.69;40.75;103121.53;5125801;28;20364;-51
2022/03/22 05:21:04;;;;;;;;;;;;;;;17.68;40.72;103124.34;5126113;28;20013;-53
2022/03/22 05:23:29;;;;;;;;;;;;;;;17.67;40.87;103128.84;5124564;28;19984;-50
2022/03/22 05:25:54;;;;;;;;;;;;;;;17.66;40.95;103121.72;5125316;28;19907;-52
2022/03/22 05:28:19;;;;;;;;;;;;;;;17.66;40.82;103134.31;5125659;28;19980;-54
2022/03/22 05:30:44;;;;;;;;;;;;;;;17.67;40.77;103136.03;5125453;28;19907;-53
2022/03/22 05:33:10;;;;;;;;;;;;;;;17.65;41.02;103129.91;5111585;28;19944;-51
2022/03/22 05:35:35;;;;;;;;;;;;;;;17.64;41.20;103138.97;5109792;28;19918;-50
2022/03/22 05:38:00;;;;;;;;;;;;;;;17.63;41.44;103143.50;5124754;28;19908;-51
2022/03/22 05:40:25;;;;;;;;;;;;;;;17.62;41.57;103139.06;5124236;28;20411;-50
2022/03/22 05:42:51;;;;;;;;;;;;;;;17.61;41.46;103145.41;5124900;28;19915;-53
2022/03/22 05:45:16;;;;;;;;;;;;;;;17.61;41.61;103147.25;5122252;28;19905;-50
2022/03/22 05:47:42;;;;;;;;;;;;;;;17.59;41.52;103144.66;5113636;28;19938;-52
2022/03/22 05:50:08;;;;;;;;;;;;;;;17.59;41.60;103144.66;5124598;28;19914;-51
2022/03/22 05:52:33;;;;;;;;;;;;;;;17.59;41.59;103144.66;5124960;28;19974;-52
2022/03/22 05:54:58;;;;;;;;;;;;;;;17.58;41.76;103148.28;5114532;28;19915;-51
2022/03/22 05:57:23;;;;;;;;;;;;;;;17.58;41.82;103147.44;5124545;28;19956;-52
2022/03/22 05:59:49;;;;;;;;;;;;;;;17.58;41.56;103147.44;5107629;28;19957;-52
2022/03/22 06:02:14;;;;;;;;;;;;;;;17.58;41.91;103148.28;5111199;28;19915;-50
2022/03/22 06:04:39;;;;;;;;;;;;;;;17.58;41.73;103150.13;5123454;28;19907;-51
2022/03/22 06:07:04;;;;;;;;;;;;;;;17.57;41.70;103151.97;5111341;28;19912;-51
2022/03/22 06:09:29;;;;;;;;;;;;;;;17.58;41.91;103155.50;5110688;28;20371;-54
2022/03/22 06:11:55;;;;;;;;;;;;;;;17.58;42.00;103152.81;5123428;28;19929;-54
2022/03/22 06:14:21;;;;;;;;;;;;;;;17.57;41.97;103154.66;5121024;28;19912;-53
2022/03/22 06:16:46;;;;;;;;;;;;;;;17.56;41.88;103155.63;5103951;28;19908;-54
2022/03/22 06:19:11;;;;;;;;;;;;;;;17.57;42.03;103165.41;5103831;28;19908;-55
2022/03/22 06:21:36;;;;;;;;;;;;;;;17.57;41.99;103165.41;5104270;28;19908;-51
2022/03/22 06:24:01;;;;;;;;;;;;;;;17.57;41.93;103172.63;5110745;28;20595;-53
2022/03/22 06:26:26;;;;;;;;;;;;;;;17.57;41.98;103176.16;5123524;28;19915;-55
2022/03/22 06:28:52;;;;;;;;;;;;;;;17.56;41.97;103169.06;5118707;28;19923;-52
2022/03/22 06:31:17;;;;;;;;;;;;;;;17.57;42.17;103176.16;5110904;28;19908;-53
2022/03/22 06:33:42;;;;;;;;;;;;;;;17.56;42.10;103177.16;5122327;28;19916;-54
2022/03/22 06:36:08;;;;;;;;;;;;;;;17.56;42.06;103174.47;5118436;28;19911;-51
2022/03/22 06:38:34;;;;;;;;;;;;;;;17.56;42.33;103178.97;5116132;28;19911;-50
2022/03/22 06:40:59;;;;;;;;;;;;;;;17.56;42.23;103187.03;5113949;28;20573;-50
2022/03/22 06:43:24;;;;;;;;;;;;;;;17.55;42.25;103178.13;5115255;28;19908;-51
2022/03/22 06:45:49;;;;;;;;;;;;;;;17.55;42.07;103186.19;5116357;28;19931;-53
2022/03/22 06:48:18;;;;;;;;;;;;;;;17.57;42.01;103183.38;5121539;28;19947;-55
2022/03/22 06:50:44;;;;;;;;;;;;;;;17.57;42.35;103183.38;5108382;28;19990;-53
2022/03/22 06:53:09;;;;;;;;;;;;;;;17.57;42.17;103180.69;5107857;28;20400;-56
2022/03/22 06:55:35;;;;;;;;;;;;;;;17.56;42.23;103185.22;5109289;28;19912;-56
2022/03/22 06:58:00;;;;;;;;;;;;;;;17.57;42.05;103181.56;5107899;28;19912;-56
2022/03/22 07:00:27;;;;;;;;;;;;;;;17.57;42.20;103186.94;5117800;28;19907;-55
2022/03/22 07:02:53;;;;;;;;;;;;;;;17.57;42.36;103184.25;5125461;28;20580;-55
2022/03/22 07:05:18;;;;;;;;;;;;;;;17.58;42.38;103190.47;5109465;28;19908;-56
2022/03/22 07:07:43;;;;;;;;;;;;;;;17.58;42.13;103187.78;5113896;28;19923;-57
2022/03/22 07:10:10;;;;;;;;;;;;;;;17.59;42.17;103189.53;5123446;28;19922;-56
2022/03/22 07:12:45;;;;;;;;;;;;;;;17.59;42.37;103189.53;5112514;28;19919;-56
2022/03/22 07:15:10;;;;;;;;;;;;;;;17.59;42.30;103186.84;5125030;28;19947;-57
2022/03/22 07:17:35;;;;;;;;;;;;;;;17.61;42.51;103187.59;5127411;28;19911;-57
2022/03/22 07:20:00;;;;;;;;;;;;;;;17.59;42.38;103185.00;5119066;28;20002;-57
2022/03/22 07:22:26;;;;;;;;;;;;;;;17.59;42.45;103190.41;5124975;28;19908;-57
2022/03/22 07:24:52;;;;;;;;;;;;;;;17.58;42.57;103190.47;5124392;28;20602;-58
2022/03/22 07:27:17;;;;;;;;;;;;;;;17.57;42.68;103192.31;5126250;28;19918;-58
2022/03/22 07:29:42;;;;;;;;;;;;;;;17.57;42.54;103197.69;5125065;28;20006;-57
2022/03/22 07:32:07;;;;;;;;;;;;;;;17.56;42.57;103195.97;5127273;28;19911;-57
2022/03/22 07:34:33;;;;;;;;;;;;;;;17.57;42.63;103196.84;5126355;28;19915;-57
2022/03/22 07:36:58;;;;;;;;;;;;;;;17.57;42.52;103199.53;5124538;28;19918;-57
2022/03/22 07:39:24;;;;;;;;;;;;;;;17.56;42.57;103203.19;5127404;28;19929;-57
2022/03/22 07:41:49;;;;;;;;;;;;;;;17.47;42.66;103189.41;5126962;28;19916;-56
2022/03/22 07:44:15;;;;;;;;;;;;;;;17.53;42.78;103201.56;5126323;28;19908;-57
2022/03/22 07:46:40;;;;;;;;;;;;;;;17.53;42.65;103200.69;5119287;28;19930;-57
2022/03/22 07:54:33;;;;;;;;;;;;;;;17.51;42.73;103197.25;5107226;28;19915;-57
2022/03/22 07:56:58;;;;;;;;;;;;;;;17.51;42.79;103202.63;5114669;28;19915;-58
2022/03/22 07:59:29;;;;;;;;;;;;;;;17.52;42.52;103201.66;5127398;28;19929;-57
2022/03/22 08:01:55;;;;;;;;;;;;;;;17.54;42.41;103205.09;5110045;28;19912;-57
2022/03/22 08:04:20;;;;;;;;;;;;;;;17.55;42.52;103202.31;5106640;28;19915;-57
2022/03/22 08:06:45;;;;;;;;;;;;;;;17.58;42.49;103201.25;5106849;28;20387;-57
2022/03/22 08:09:10;;;;;;;;;;;;;;;17.60;42.38;103210.09;5112610;28;19968;-57
2022/03/22 08:11:36;;;;;;;;;;;;;;;17.62;42.28;103213.50;5124586;28;19907;-57
2022/03/22 08:14:03;;;;;;;;;;;;;;;17.64;42.23;103215.16;5123797;28;19966;-54
2022/03/22 08:16:28;;;;;;;;;;;;;;;17.66;42.32;103209.66;5126769;28;19918;-56
2022/03/22 08:18:53;;;;;;;;;;;;;;;17.67;42.30;103214.94;5120678;28;19908;-56
2022/03/22 08:21:19;;;;;;;;;;;;;;;17.69;42.25;103214.84;5126787;28;19919;-53
2022/03/22 08:23:44;;;;;;;;;;;;;;;17.68;42.46;103208.59;5123058;28;19924;-56
2022/03/22 08:26:09;;;;;;;;;;;;;;;17.70;42.49;103212.03;5117506;28;19912;-56
2022/03/22 08:28:34;;;;;;;;;;;;;;;17.70;42.50;103214.72;5123153;28;19989;-56
2022/03/22 08:30:59;;;;;;;;;;;;;;;17.70;42.50;103213.84;5124001;28;19919;-55
2022/03/22 08:33:24;;;;;;;;;;;;;;;17.71;42.43;103212.88;5124647;28;19914;-54
2022/03/22 08:35:52;;;;;;;;;;;;;;;17.71;42.57;103205.69;5121386;28;19918;-55
2022/03/22 08:38:20;;;;;;;;;;;;;;;17.72;42.56;103212.81;5120637;28;19907;-56
2022/03/22 08:40:45;;;;;;;;;;;;;;;17.74;42.65;103212.72;5122961;28;20323;-57
2022/03/22 08:43:11;;;;;;;;;;;;;;;17.76;42.40;103218.88;5126240;28;19951;-57
2022/03/22 08:45:36;;;;;;;;;;;;;;;17.78;42.29;103218.75;5126274;28;19919;-55
2022/03/22 08:48:03;;;;;;;;;;;;;;;17.78;42.45;103219.63;5125632;28;20365;-54
2022/03/22 08:50:29;;;;;;;;;;;;;;;17.80;42.18;103212.31;5125011;28;19914;-56
2022/03/22 08:52:56;;;;;;;;;;;;;;;17.83;42.20;103216.59;5126408;28;19907;-56
2022/03/22 08:55:23;;;;;;;;;;;;;;;17.84;42.18;103211.13;5126309;27;20280;-54
2022/03/22 08:57:48;;;;;;;;;;;;;;;17.86;42.29;103217.25;5126039;28;19956;-56
2022/03/22 09:00:14;;;;;;;;;;;;;;;17.88;42.17;103215.34;5126488;28;19998;-55
2022/03/22 09:02:39;;;;;;;;;;;;;;;17.91;42.20;103220.50;5125858;28;19912;-53
2022/03/22 09:07:49;;;;;;;;;;;;;;;17.95;42.06;103223.84;5125168;28;19918;-54
2022/03/22 09:10:14;;;;;;;;;;;;;;;17.97;42.18;103220.09;5125348;28;19908;-54
2022/03/22 09:12:40;;;;;;;;;;;;;;;17.99;41.96;103220.81;5126197;28;19914;-55
2022/03/22 09:15:05;;;;;;;;;;;;;;;18.01;42.20;103220.75;5126079;28;19914;-53
2022/03/22 09:17:31;;;;;;;;;;;;;;;18.04;42.01;103215.13;5126048;28;19972;-55
2022/03/22 09:19:56;;;;;;;;;;;;;;;18.04;41.81;103217.81;5125386;28;19908;-54
2022/03/22 09:22:22;;;;;;;;;;;;;;;18.06;41.87;103218.59;5125752;28;19919;-52
2022/03/22 09:24:47;;;;;;;;;;;;;;;18.10;41.77;103216.53;5125300;28;19947;-55
2022/03/22 09:27:12;;;;;;;;;;;;;;;18.11;41.88;103213.72;5125755;28;19919;-55
2022/03/22 09:29:37;;;;;;;;;;;;;;;18.12;41.68;103212.75;5125718;28;20000;-56
2022/03/22 09:32:02;;;;;;;;;;;;;;;18.15;41.60;103214.38;5125412;28;20400;-55
2022/03/22 09:34:28;;;;;;;;;;;;;;;18.16;41.65;103213.41;5125075;28;19931;-56
2022/03/22 09:36:53;;;;;;;;;;;;;;;18.17;41.67;103213.28;5125491;28;20388;-56
2022/03/22 09:39:19;;;;;;;;;;;;;;;18.19;41.64;103213.19;5125578;28;19911;-55
2022/03/22 09:41:45;;;;;;;;;;;;;;;18.19;41.74;103216.75;5125049;28;19907;-57
2022/03/22 09:44:11;;;;;;;;;;;;;;;18.22;41.33;103218.34;5124282;28;19911;-56
2022/03/22 09:46:36;;;;;;;;;;;;;;;18.22;41.53;103219.25;5110868;28;19908;-54
2022/03/22 09:49:01;;;;;;;;;;;;;;;18.24;41.37;103216.44;5103360;28;19969;-54
2022/03/22 09:51:45;;;;;;;;;;;;;;;18.26;41.42;103217.16;5105143;28;19908;-56
2022/03/22 09:54:11;;;;;;;;;;;;;;;18.28;41.42;103217.94;5104076;28;19908;-56
2022/03/22 09:56:36;;;;;;;;;;;;;;;18.29;41.36;103218.78;5104256;28;20417;-56
2022/03/22 09:59:04;;;;;;;;;;;;;;;18.28;41.39;103215.25;5104885;28;20097;-55
2022/03/22 10:01:30;;;;;;;;;;;;;;;18.30;41.23;103220.50;5112709;28;19907;-53
2022/03/22 10:04:00;;;;;;;;;;;;;;;18.30;41.29;103215.13;5124632;28;19950;-54
2022/03/22 10:06:25;;;;;;;;;;;;;;;18.30;41.22;103210.59;5125254;28;19919;-54
2022/03/22 10:08:51;;;;;;;;;;;;;;;18.29;41.43;103214.25;5123360;28;19912;-54
2022/03/22 10:11:17;;;;;;;;;;;;;;;18.29;41.26;103203.50;5124672;28;20010;-54
2022/03/22 10:13:49;;;;;;;;;;;;;;;18.30;41.33;103201.66;5125063;28;19916;-55
2022/03/22 10:16:14;;;;;;;;;;;;;;;18.30;41.22;103199.81;5124946;28;19915;-55
2022/03/22 10:18:39;;;;;;;;;;;;;;;18.30;41.20;103191.75;5124798;28;20002;-53
2022/03/22 10:21:05;;;;;;;;;;;;;;;18.31;41.20;103198.88;5123213;28;19930;-56
2022/03/22 10:23:30;;;;;;;;;;;;;;;18.33;41.15;103198.75;5124896;28;19916;-53
2022/03/22 10:26:06;;;;;;;;;;;;;;;18.33;41.33;103193.38;5124257;28;19915;-56
2022/03/22 10:28:31;;;;;;;;;;;;;;;18.33;41.19;103188.84;5125167;28;19912;-56
2022/03/22 10:30:57;;;;;;;;;;;;;;;18.34;41.27;103187.84;5124362;28;19975;-53
2022/03/22 10:33:22;;;;;;;;;;;;;;;18.35;41.33;103178.84;5123840;28;19984;-54
2022/03/22 10:35:47;;;;;;;;;;;;;;;18.37;41.33;103179.56;5123950;28;19908;-52
2022/03/22 10:38:14;;;;;;;;;;;;;;;18.39;41.05;103180.34;5124598;28;19918;-54
2022/03/22 10:40:44;;;;;;;;;;;;;;;18.41;41.31;103182.91;5124139;28;20523;-55
2022/03/22 10:43:09;;;;;;;;;;;;;;;18.43;41.31;103186.34;5124680;28;19915;-54
2022/03/22 10:45:42;;;;;;;;;;;;;;;18.44;41.14;103177.31;5124543;28;19904;-55
2022/03/22 10:48:07;;;;;;;;;;;;;;;18.46;41.34;103186.97;5124272;28;19911;-53
2022/03/22 10:50:35;;;;;;;;;;;;;;;18.48;41.22;103185.06;5123980;28;19934;-55
2022/03/22 10:53:01;;;;;;;;;;;;;;;18.50;41.25;103179.53;5124658;28;19914;-55
2022/03/22 10:55:27;;;;;;;;;;;;;;;18.52;41.35;103187.50;5124013;28;19908;-56
2022/03/22 10:57:54;;;;;;;;;;;;;;;18.53;41.22;103184.72;5124325;28;19933;-54
2022/03/22 11:00:20;;;;;;;;;;;;;;;18.55;41.22;103185.47;5124543;28;19912;-55
2022/03/22 11:02:47;;;;;;;;;;;;;;;18.57;41.39;103185.38;5123903;28;19981;-56
2022/03/22 11:05:12;;;;;;;;;;;;;;;18.59;41.34;103180.72;5123931;28;19908;-54
2022/03/22 11:07:38;;;;;;;;;;;;;;;18.60;41.39;103185.97;5123073;28;19976;-53
2022/03/22 11:10:04;;;;;;;;;;;;;;;18.62;41.33;103189.44;5122148;28;19912;-54
2022/03/22 11:12:29;;;;;;;;;;;;;;;18.64;41.23;103189.31;5124261;28;19930;-56
2022/03/22 11:14:55;;;;;;;;;;;;;;;18.66;41.20;103192.78;5122909;28;19977;-54
2022/03/22 11:17:21;;;;;;;;;;;;;;;18.67;41.36;103181.00;5124200;28;19911;-54
2022/03/22 11:19:49;;;;;;;;;;;;;;;18.68;41.52;103172.81;5123568;28;19918;-54
2022/03/22 11:22:16;;;;;;;;;;;;;;;18.69;41.34;103176.38;5123091;28;19907;-54
2022/03/22 11:24:41;;;;;;;;;;;;;;;18.71;41.45;103177.16;5124089;28;19907;-55
2022/03/22 11:27:07;;;;;;;;;;;;;;;18.73;41.44;103170.69;5123841;28;19915;-56
2022/03/22 11:29:33;;;;;;;;;;;;;;;18.75;41.64;103170.56;5124385;28;19916;-55
2022/03/22 11:34:42;;;;;;;;;;;;;;;18.77;41.49;103163.22;5119605;28;19918;-56
2022/03/22 11:37:08;;;;;;;;;;;;;;;18.79;41.65;103166.69;5103715;28;19975;-56
2022/03/22 11:42:20;;;;;;;;;;;;;;;18.81;41.71;103159.31;5103832;28;19930;-56
2022/03/22 11:44:59;;;;;;;;;;;;;;;18.82;41.59;103161.06;5112050;28;19930;-55
2022/03/22 11:47:25;;;;;;;;;;;;;;;18.84;41.73;103159.09;5107089;28;19912;-55
2022/03/22 11:49:54;;;;;;;;;;;;;;;18.85;41.51;103152.75;5106891;28;19983;-55
2022/03/22 11:52:24;;;;;;;;;;;;;;;18.86;41.76;103157.19;5107476;28;19912;-55
2022/03/22 11:54:53;;;;;;;;;;;;;;;18.88;41.82;103151.66;5106631;28;19989;-52
2022/03/22 11:57:18;;;;;;;;;;;;;;;18.88;41.79;103157.91;5105865;28;19908;-54
2022/03/22 11:59:45;;;;;;;;;;;;;;;18.90;41.81;103155.09;5107238;28;19973;-53
2022/03/22 12:02:17;;;;;;;;;;;;;;;18.91;42.15;103156.84;5125206;28;19911;-54
2022/03/22 12:04:52;;;;;;;;;;;;;;;18.91;41.73;103155.00;5127015;28;19907;-54
2022/03/22 12:07:27;;;;;;;;;;;;;;;18.92;41.87;103142.38;5127508;28;19907;-53
2022/03/22 12:09:53;;;;;;;;;;;;;;;18.93;41.80;103150.34;5125621;28;19907;-54
2022/03/22 12:12:18;;;;;;;;;;;;;;;18.94;42.02;103138.56;5127435;28;19918;-54
2022/03/22 12:14:45;;;;;;;;;;;;;;;18.95;42.04;103142.16;5127153;28;19908;-52
2022/03/22 12:17:10;;;;;;;;;;;;;;;18.95;42.08;103144.84;5127116;28;19908;-54
2022/03/22 12:19:36;;;;;;;;;;;;;;;18.96;42.10;103135.78;5127010;28;19908;-55
2022/03/22 12:22:02;;;;;;;;;;;;;;;18.97;42.10;103142.88;5125959;28;20729;-54
2022/03/22 12:24:33;;;;;;;;;;;;;;;18.97;42.10;103135.66;5125774;28;19926;-52
2022/03/22 12:26:58;;;;;;;;;;;;;;;18.98;42.03;103134.66;5126361;28;20360;-54
2022/03/22 12:29:25;;;;;;;;;;;;;;;18.99;42.17;103127.47;5127092;28;19918;-56
2022/03/22 12:31:51;;;;;;;;;;;;;;;19.01;42.13;103133.59;5126217;28;20384;-56
2022/03/22 12:34:16;;;;;;;;;;;;;;;19.02;42.22;103127.22;5126192;28;19911;-55
2022/03/22 12:36:41;;;;;;;;;;;;;;;19.03;42.11;103122.69;5107157;28;19918;-57
2022/03/22 12:39:07;;;;;;;;;;;;;;;19.04;42.17;103121.72;5106369;28;19912;-55
2022/03/22 12:41:32;;;;;;;;;;;;;;;19.06;42.17;103120.63;5104604;28;20010;-55
2022/03/22 12:43:57;;;;;;;;;;;;;;;19.08;42.21;103112.44;5108102;28;19908;-53
2022/03/22 12:46:22;;;;;;;;;;;;;;;19.09;42.38;103116.84;5126298;28;19937;-57
2022/03/22 12:48:50;;;;;;;;;;;;;;;19.11;42.22;103110.34;5125256;28;19919;-57
2022/03/22 12:51:16;;;;;;;;;;;;;;;19.14;42.26;103114.66;5126231;28;19947;-54
2022/03/22 12:53:41;;;;;;;;;;;;;;;19.15;42.44;103111.81;5126405;28;20292;-56
2022/03/22 12:56:13;;;;;;;;;;;;;;;19.18;42.36;103105.34;5124991;28;20360;-57
2022/03/22 12:58:38;;;;;;;;;;;;;;;19.19;42.61;103099.84;5126594;28;19908;-56
2022/03/22 13:01:03;;;;;;;;;;;;;;;19.23;42.58;103100.47;5125859;28;19934;-56